Terminal Aerodrome Forecast
Issued by NWS Kansas City/Pleasant Hill, MO

Home | Current Version | Previous Version | Text Only | Print | Product List | Glossary On
Versions: 1 2 3 4 5 6 7 8 9 10 11 12 13 14 15 16 17 18 19 20
829
FTUS43 KEAX 222326
TAFMCI
TAF
KMCI 222326Z 2300/2324 34012KT P6SM OVC012
     FM230400 33010KT 5SM BR OVC010
     FM231200 32006KT 4SM BR SCT015
     FM231400 VRB04KT P6SM SCT150=

USA.gov is the U.S. government's official web portal to all federal, state and local government web resources and services.